sensor_id;sensor_type;location;lat;lon;timestamp;noise_LAeq;noise_LA_min;noise_LA_max;noise_LA01;noise_LA95
18377;Laerm;9315;52.624;13.544;2022-12-29T00:00:28;65.22;41.89;83.60;;
18377;Laerm;9315;52.624;13.544;2022-12-29T00:02:55;46.15;41.91;53.28;;
18377;Laerm;9315;52.624;13.544;2022-12-29T00:05:24;58.86;41.78;75.50;;
18377;Laerm;9315;52.624;13.544;2022-12-29T00:07:51;46.46;41.51;54.85;;
18377;Laerm;9315;52.624;13.544;2022-12-29T00:10:19;47.02;41.32;55.54;;
18377;Laerm;9315;52.624;13.544;2022-12-29T00:12:46;55.36;41.09;72.32;;
18377;Laerm;9315;52.624;13.544;2022-12-29T00:15:32;64.12;41.77;82.96;;
18377;Laerm;9315;52.624;13.544;2022-12-29T00:18:06;46.91;42.31;64.16;;
18377;Laerm;9315;52.624;13.544;2022-12-29T00:20:37;61.19;42.22;79.06;;
18377;Laerm;9315;52.624;13.544;2022-12-29T00:23:27;64.78;43.10;81.45;;
18377;Laerm;9315;52.624;13.544;2022-12-29T00:26:15;46.27;42.20;56.13;;
18377;Laerm;9315;52.624;13.544;2022-12-29T00:29:02;62.66;41.62;81.49;;
18377;Laerm;9315;52.624;13.544;2022-12-29T00:31:48;68.00;42.84;83.61;;
18377;Laerm;9315;52.624;13.544;2022-12-29T00:34:34;55.96;40.78;74.93;;
18377;Laerm;9315;52.624;13.544;2022-12-29T00:37:27;45.46;41.43;55.55;;
18377;Laerm;9315;52.624;13.544;2022-12-29T00:40:14;46.06;41.21;56.29;;
18377;Laerm;9315;52.624;13.544;2022-12-29T00:43:00;61.80;41.72;81.16;;
18377;Laerm;9315;52.624;13.544;2022-12-29T00:45:49;46.75;40.78;61.23;;
18377;Laerm;9315;52.624;13.544;2022-12-29T00:48:19;60.69;42.07;77.65;;
18377;Laerm;9315;52.624;13.544;2022-12-29T00:51:07;46.86;40.82;64.09;;
18377;Laerm;9315;52.624;13.544;2022-12-29T00:53:40;63.10;41.92;78.74;;
18377;Laerm;9315;52.624;13.544;2022-12-29T00:56:12;48.77;41.71;63.96;;
18377;Laerm;9315;52.624;13.544;2022-12-29T00:58:39;63.35;42.87;78.42;;
18377;Laerm;9315;52.624;13.544;2022-12-29T01:01:08;61.67;41.29;80.08;;
18377;Laerm;9315;52.624;13.544;2022-12-29T01:03:37;60.22;41.64;80.20;;
18377;Laerm;9315;52.624;13.544;2022-12-29T01:06:09;59.54;41.76;79.51;;
18377;Laerm;9315;52.624;13.544;2022-12-29T01:08:37;61.57;40.87;82.15;;
18377;Laerm;9315;52.624;13.544;2022-12-29T01:11:10;62.31;41.56;82.13;;
18377;Laerm;9315;52.624;13.544;2022-12-29T01:13:38;66.91;41.05;80.63;;
18377;Laerm;9315;52.624;13.544;2022-12-29T01:16:13;47.59;42.49;56.53;;
18377;Laerm;9315;52.624;13.544;2022-12-29T01:18:40;47.90;42.38;64.43;;
18377;Laerm;9315;52.624;13.544;2022-12-29T01:21:07;66.45;44.38;82.36;;
18377;Laerm;9315;52.624;13.544;2022-12-29T01:23:34;63.04;41.63;79.62;;
18377;Laerm;9315;52.624;13.544;2022-12-29T01:26:16;49.93;41.16;66.07;;
18377;Laerm;9315;52.624;13.544;2022-12-29T01:28:53;63.17;42.56;78.89;;
18377;Laerm;9315;52.624;13.544;2022-12-29T01:31:20;63.64;40.73;84.95;;
18377;Laerm;9315;52.624;13.544;2022-12-29T01:33:47;61.24;41.40;81.47;;
18377;Laerm;9315;52.624;13.544;2022-12-29T01:36:18;59.84;42.68;76.55;;
18377;Laerm;9315;52.624;13.544;2022-12-29T01:38:45;60.72;43.25;78.23;;
18377;Laerm;9315;52.624;13.544;2022-12-29T01:41:16;65.55;42.48;81.52;;
18377;Laerm;9315;52.624;13.544;2022-12-29T01:43:57;60.36;42.09;80.23;;
18377;Laerm;9315;52.624;13.544;2022-12-29T01:46:40;48.40;42.33;63.83;;
18377;Laerm;9315;52.624;13.544;2022-12-29T01:52:00;46.71;41.79;57.29;;
18377;Laerm;9315;52.624;13.544;2022-12-29T01:54:42;58.43;42.37;75.83;;
18377;Laerm;9315;52.624;13.544;2022-12-29T01:57:16;45.62;41.45;54.89;;
18377;Laerm;9315;52.624;13.544;2022-12-29T02:00:07;47.68;42.93;61.21;;
18377;Laerm;9315;52.624;13.544;2022-12-29T02:02:35;65.03;44.03;82.36;;
18377;Laerm;9315;52.624;13.544;2022-12-29T02:05:14;46.83;41.91;60.88;;
18377;Laerm;9315;52.624;13.544;2022-12-29T02:07:44;64.73;42.26;80.98;;
18377;Laerm;9315;52.624;13.544;2022-12-29T02:10:11;46.90;42.32;57.19;;
18377;Laerm;9315;52.624;13.544;2022-12-29T02:12:40;60.53;42.42;77.88;;
18377;Laerm;9315;52.624;13.544;2022-12-29T02:15:08;67.03;44.85;83.40;;
18377;Laerm;9315;52.624;13.544;2022-12-29T02:27:47;47.20;42.39;55.72;;
18377;Laerm;9315;52.624;13.544;2022-12-29T02:37:24;44.46;40.87;56.07;;
18377;Laerm;9315;52.624;13.544;2022-12-29T02:46:04;65.90;40.60;82.20;;
18377;Laerm;9315;52.624;13.544;2022-12-29T02:48:59;63.34;40.06;80.01;;
18377;Laerm;9315;52.624;13.544;2022-12-29T02:52:00;52.58;41.78;68.33;;
18377;Laerm;9315;52.624;13.544;2022-12-29T02:54:32;60.95;41.19;76.73;;
18377;Laerm;9315;52.624;13.544;2022-12-29T03:00:15;60.59;43.40;77.72;;
18377;Laerm;9315;52.624;13.544;2022-12-29T03:06:20;62.54;41.97;76.09;;
18377;Laerm;9315;52.624;13.544;2022-12-29T03:09:06;58.64;42.65;78.20;;
18377;Laerm;9315;52.624;13.544;2022-12-29T03:15:10;65.17;44.08;79.99;;
18377;Laerm;9315;52.624;13.544;2022-12-29T03:18:15;64.27;43.46;81.05;;
18377;Laerm;9315;52.624;13.544;2022-12-29T03:20:55;61.23;42.50;82.70;;
18377;Laerm;9315;52.624;13.544;2022-12-29T03:23:30;62.26;42.47;77.66;;
18377;Laerm;9315;52.624;13.544;2022-12-29T03:26:04;64.90;44.43;80.79;;
18377;Laerm;9315;52.624;13.544;2022-12-29T03:28:40;63.68;42.78;77.10;;
18377;Laerm;9315;52.624;13.544;2022-12-29T03:31:10;62.33;42.98;77.70;;
18377;Laerm;9315;52.624;13.544;2022-12-29T03:33:42;69.38;44.00;86.72;;
18377;Laerm;9315;52.624;13.544;2022-12-29T03:36:30;66.32;43.42;78.40;;
18377;Laerm;9315;52.624;13.544;2022-12-29T03:39:14;63.75;45.41;77.15;;
18377;Laerm;9315;52.624;13.544;2022-12-29T03:41:43;67.64;44.74;81.38;;
18377;Laerm;9315;52.624;13.544;2022-12-29T03:44:13;69.18;43.51;84.03;;
18377;Laerm;9315;52.624;13.544;2022-12-29T03:46:40;62.44;43.07;75.93;;
18377;Laerm;9315;52.624;13.544;2022-12-29T03:49:08;66.09;44.39;78.43;;
18377;Laerm;9315;52.624;13.544;2022-12-29T03:51:35;61.37;42.07;75.17;;
18377;Laerm;9315;52.624;13.544;2022-12-29T03:54:03;68.21;42.51;83.69;;
18377;Laerm;9315;52.624;13.544;2022-12-29T03:56:30;67.01;45.95;78.44;;
18377;Laerm;9315;52.624;13.544;2022-12-29T03:59:00;68.88;47.29;80.61;;
18377;Laerm;9315;52.624;13.544;2022-12-29T04:01:27;68.71;46.44;85.29;;
18377;Laerm;9315;52.624;13.544;2022-12-29T04:03:54;63.80;45.94;75.67;;
18377;Laerm;9315;52.624;13.544;2022-12-29T04:06:21;66.84;46.27;84.03;;
18377;Laerm;9315;52.624;13.544;2022-12-29T04:08:49;66.37;45.96;78.02;;
18377;Laerm;9315;52.624;13.544;2022-12-29T04:11:16;68.18;44.96;79.68;;
18377;Laerm;9315;52.624;13.544;2022-12-29T04:13:47;66.65;48.65;78.09;;
18377;Laerm;9315;52.624;13.544;2022-12-29T04:16:14;65.62;46.37;78.76;;
18377;Laerm;9315;52.624;13.544;2022-12-29T04:18:42;69.93;47.20;80.51;;
18377;Laerm;9315;52.624;13.544;2022-12-29T04:21:09;69.49;48.14;81.72;;
18377;Laerm;9315;52.624;13.544;2022-12-29T04:23:39;68.12;45.71;77.06;;
18377;Laerm;9315;52.624;13.544;2022-12-29T04:26:08;67.07;46.59;79.43;;
18377;Laerm;9315;52.624;13.544;2022-12-29T04:28:36;67.51;49.09;80.18;;
18377;Laerm;9315;52.624;13.544;2022-12-29T04:31:07;65.85;47.39;77.84;;
18377;Laerm;9315;52.624;13.544;2022-12-29T04:33:36;68.96;46.34;80.48;;
18377;Laerm;9315;52.624;13.544;2022-12-29T04:36:04;66.83;45.54;78.34;;
18377;Laerm;9315;52.624;13.544;2022-12-29T04:38:31;68.03;46.40;80.89;;
18377;Laerm;9315;52.624;13.544;2022-12-29T04:41:02;69.02;49.20;79.77;;
18377;Laerm;9315;52.624;13.544;2022-12-29T04:43:29;65.87;46.28;79.82;;
18377;Laerm;9315;52.624;13.544;2022-12-29T04:45:57;68.33;46.19;78.83;;
18377;Laerm;9315;52.624;13.544;2022-12-29T04:48:24;70.10;49.12;82.76;;
18377;Laerm;9315;52.624;13.544;2022-12-29T04:50:51;63.52;44.72;75.85;;
18377;Laerm;9315;52.624;13.544;2022-12-29T04:53:19;69.33;46.26;83.08;;
18377;Laerm;9315;52.624;13.544;2022-12-29T04:55:51;66.91;45.80;83.25;;
18377;Laerm;9315;52.624;13.544;2022-12-29T04:58:20;71.83;46.42;84.51;;
18377;Laerm;9315;52.624;13.544;2022-12-29T05:00:51;68.24;49.33;84.40;;
18377;Laerm;9315;52.624;13.544;2022-12-29T05:03:18;68.63;46.28;82.64;;
18377;Laerm;9315;52.624;13.544;2022-12-29T05:05:46;68.70;43.81;85.34;;
18377;Laerm;9315;52.624;13.544;2022-12-29T05:08:13;65.36;45.64;78.22;;
18377;Laerm;9315;52.624;13.544;2022-12-29T05:10:46;70.37;46.99;79.50;;
18377;Laerm;9315;52.624;13.544;2022-12-29T05:13:14;66.59;44.71;80.02;;
18377;Laerm;9315;52.624;13.544;2022-12-29T05:15:41;67.16;47.56;77.90;;
18377;Laerm;9315;52.624;13.544;2022-12-29T05:18:12;69.26;46.55;80.49;;
18377;Laerm;9315;52.624;13.544;2022-12-29T05:20:39;70.16;45.34;81.00;;
18377;Laerm;9315;52.624;13.544;2022-12-29T05:23:06;68.82;45.42;82.85;;
18377;Laerm;9315;52.624;13.544;2022-12-29T05:25:34;68.00;46.12;77.37;;
18377;Laerm;9315;52.624;13.544;2022-12-29T05:28:01;67.55;46.97;78.86;;
18377;Laerm;9315;52.624;13.544;2022-12-29T05:30:28;68.32;48.29;79.21;;
18377;Laerm;9315;52.624;13.544;2022-12-29T05:32:56;68.50;45.27;80.61;;
18377;Laerm;9315;52.624;13.544;2022-12-29T05:35:23;68.09;45.75;77.12;;
18377;Laerm;9315;52.624;13.544;2022-12-29T05:37:50;69.39;47.43;79.49;;
18377;Laerm;9315;52.624;13.544;2022-12-29T05:40:17;68.91;47.47;79.74;;
18377;Laerm;9315;52.624;13.544;2022-12-29T05:42:44;67.35;47.13;79.41;;
18377;Laerm;9315;52.624;13.544;2022-12-29T05:45:11;66.75;48.05;79.02;;
18377;Laerm;9315;52.624;13.544;2022-12-29T05:47:38;69.18;46.74;81.90;;
18377;Laerm;9315;52.624;13.544;2022-12-29T05:50:08;68.14;47.62;80.00;;
18377;Laerm;9315;52.624;13.544;2022-12-29T05:52:35;66.02;46.98;78.36;;
18377;Laerm;9315;52.624;13.544;2022-12-29T05:55:02;64.79;46.61;76.80;;
18377;Laerm;9315;52.624;13.544;2022-12-29T05:57:30;70.93;48.95;81.62;;
18377;Laerm;9315;52.624;13.544;2022-12-29T05:59:57;67.15;47.79;79.55;;
18377;Laerm;9315;52.624;13.544;2022-12-29T06:02:24;67.11;47.91;79.21;;
18377;Laerm;9315;52.624;13.544;2022-12-29T06:04:51;68.37;47.33;80.01;;
18377;Laerm;9315;52.624;13.544;2022-12-29T06:07:19;67.93;47.33;79.77;;
18377;Laerm;9315;52.624;13.544;2022-12-29T06:09:46;64.82;45.84;76.18;;
18377;Laerm;9315;52.624;13.544;2022-12-29T06:12:13;65.64;47.50;76.94;;
18377;Laerm;9315;52.624;13.544;2022-12-29T06:14:40;67.66;48.66;76.70;;
18377;Laerm;9315;52.624;13.544;2022-12-29T06:17:07;66.07;49.97;78.73;;
18377;Laerm;9315;52.624;13.544;2022-12-29T06:19:35;70.77;47.46;85.30;;
18377;Laerm;9315;52.624;13.544;2022-12-29T06:22:02;71.22;49.96;80.99;;
18377;Laerm;9315;52.624;13.544;2022-12-29T06:24:29;67.87;47.15;79.14;;
18377;Laerm;9315;52.624;13.544;2022-12-29T06:26:56;66.19;47.61;77.37;;
18377;Laerm;9315;52.624;13.544;2022-12-29T06:29:23;68.97;47.96;78.61;;
18377;Laerm;9315;52.624;13.544;2022-12-29T06:31:51;69.74;51.28;78.57;;
18377;Laerm;9315;52.624;13.544;2022-12-29T06:34:24;66.40;47.45;78.89;;
18377;Laerm;9315;52.624;13.544;2022-12-29T06:36:51;67.92;46.83;81.39;;
18377;Laerm;9315;52.624;13.544;2022-12-29T06:39:21;70.93;48.35;81.47;;
18377;Laerm;9315;52.624;13.544;2022-12-29T06:41:51;68.94;48.03;78.25;;
18377;Laerm;9315;52.624;13.544;2022-12-29T06:44:18;69.86;48.78;79.49;;
18377;Laerm;9315;52.624;13.544;2022-12-29T06:46:45;67.45;48.52;77.24;;
18377;Laerm;9315;52.624;13.544;2022-12-29T06:49:12;68.52;47.78;78.38;;
18377;Laerm;9315;52.624;13.544;2022-12-29T06:51:44;68.31;46.13;80.85;;
18377;Laerm;9315;52.624;13.544;2022-12-29T06:54:12;69.79;47.65;82.55;;
18377;Laerm;9315;52.624;13.544;2022-12-29T06:56:39;67.65;48.65;78.77;;
18377;Laerm;9315;52.624;13.544;2022-12-29T06:59:06;66.72;47.50;78.23;;
18377;Laerm;9315;52.624;13.544;2022-12-29T07:01:34;70.56;51.80;82.74;;
18377;Laerm;9315;52.624;13.544;2022-12-29T07:04:03;69.42;47.57;85.24;;
18377;Laerm;9315;52.624;13.544;2022-12-29T07:06:31;68.97;50.02;80.35;;
18377;Laerm;9315;52.624;13.544;2022-12-29T07:08:58;67.54;48.91;79.13;;
18377;Laerm;9315;52.624;13.544;2022-12-29T07:11:25;67.78;47.63;78.29;;
18377;Laerm;9315;52.624;13.544;2022-12-29T07:13:52;67.82;44.94;79.97;;
18377;Laerm;9315;52.624;13.544;2022-12-29T07:16:19;68.39;48.20;79.56;;
18377;Laerm;9315;52.624;13.544;2022-12-29T07:18:47;67.88;48.33;79.44;;
18377;Laerm;9315;52.624;13.544;2022-12-29T07:21:14;70.29;50.29;83.19;;
18377;Laerm;9315;52.624;13.544;2022-12-29T07:23:42;69.06;49.19;78.51;;
18377;Laerm;9315;52.624;13.544;2022-12-29T07:26:13;69.64;48.81;81.30;;
18377;Laerm;9315;52.624;13.544;2022-12-29T07:28:41;69.96;50.73;80.49;;
18377;Laerm;9315;52.624;13.544;2022-12-29T07:31:20;68.67;49.09;82.15;;
18377;Laerm;9315;52.624;13.544;2022-12-29T07:33:50;68.92;50.47;79.60;;
18377;Laerm;9315;52.624;13.544;2022-12-29T07:36:17;66.94;49.17;78.96;;
18377;Laerm;9315;52.624;13.544;2022-12-29T07:38:44;67.74;49.77;79.42;;
18377;Laerm;9315;52.624;13.544;2022-12-29T07:41:13;67.59;48.66;78.26;;
18377;Laerm;9315;52.624;13.544;2022-12-29T07:43:40;68.61;48.00;82.21;;
18377;Laerm;9315;52.624;13.544;2022-12-29T07:46:07;68.76;48.91;79.45;;
18377;Laerm;9315;52.624;13.544;2022-12-29T07:48:56;68.05;47.24;79.47;;
18377;Laerm;9315;52.624;13.544;2022-12-29T07:51:24;68.21;47.33;79.89;;
18377;Laerm;9315;52.624;13.544;2022-12-29T07:53:57;69.21;48.23;80.31;;
18377;Laerm;9315;52.624;13.544;2022-12-29T07:56:27;68.31;51.03;77.27;;
18377;Laerm;9315;52.624;13.544;2022-12-29T07:58:54;68.77;51.28;77.53;;
18377;Laerm;9315;52.624;13.544;2022-12-29T08:01:21;68.18;49.73;76.08;;
18377;Laerm;9315;52.624;13.544;2022-12-29T08:03:50;68.47;48.10;78.85;;
18377;Laerm;9315;52.624;13.544;2022-12-29T08:06:23;67.32;48.48;77.44;;
18377;Laerm;9315;52.624;13.544;2022-12-29T08:08:51;68.03;50.70;77.55;;
18377;Laerm;9315;52.624;13.544;2022-12-29T08:11:21;67.80;49.51;77.57;;
18377;Laerm;9315;52.624;13.544;2022-12-29T08:13:49;71.74;54.74;80.35;;
18377;Laerm;9315;52.624;13.544;2022-12-29T08:16:16;66.34;50.88;79.18;;
18377;Laerm;9315;52.624;13.544;2022-12-29T08:18:44;69.77;49.29;79.60;;
18377;Laerm;9315;52.624;13.544;2022-12-29T08:21:14;69.77;48.02;80.72;;
18377;Laerm;9315;52.624;13.544;2022-12-29T08:23:42;70.22;52.18;78.84;;
18377;Laerm;9315;52.624;13.544;2022-12-29T08:26:10;68.34;50.10;76.54;;
18377;Laerm;9315;52.624;13.544;2022-12-29T08:28:38;70.39;51.91;78.77;;
18377;Laerm;9315;52.624;13.544;2022-12-29T08:31:05;69.11;51.30;77.78;;
18377;Laerm;9315;52.624;13.544;2022-12-29T08:33:32;68.56;51.50;78.72;;
18377;Laerm;9315;52.624;13.544;2022-12-29T08:36:02;68.22;50.01;78.32;;
18377;Laerm;9315;52.624;13.544;2022-12-29T08:38:30;67.30;49.58;77.77;;
18377;Laerm;9315;52.624;13.544;2022-12-29T08:40:59;71.13;50.29;79.69;;
18377;Laerm;9315;52.624;13.544;2022-12-29T08:43:28;71.14;49.73;84.56;;
18377;Laerm;9315;52.624;13.544;2022-12-29T08:45:58;71.19;53.40;82.92;;
18377;Laerm;9315;52.624;13.544;2022-12-29T08:48:29;69.39;50.00;78.74;;
18377;Laerm;9315;52.624;13.544;2022-12-29T08:50:56;69.16;49.25;76.96;;
18377;Laerm;9315;52.624;13.544;2022-12-29T08:53:24;70.83;50.78;85.34;;
18377;Laerm;9315;52.624;13.544;2022-12-29T08:56:02;69.44;52.24;80.35;;
18377;Laerm;9315;52.624;13.544;2022-12-29T08:58:32;68.57;51.64;78.43;;
18377;Laerm;9315;52.624;13.544;2022-12-29T09:00:59;70.33;52.31;80.48;;
18377;Laerm;9315;52.624;13.544;2022-12-29T09:03:27;69.56;49.48;78.36;;
18377;Laerm;9315;52.624;13.544;2022-12-29T09:06:17;69.68;50.60;81.19;;
18377;Laerm;9315;52.624;13.544;2022-12-29T09:08:45;70.12;53.99;80.67;;
18377;Laerm;9315;52.624;13.544;2022-12-29T09:11:23;69.75;52.73;78.86;;
18377;Laerm;9315;52.624;13.544;2022-12-29T09:13:52;70.78;52.29;79.03;;
18377;Laerm;9315;52.624;13.544;2022-12-29T09:16:25;70.36;51.24;81.36;;
18377;Laerm;9315;52.624;13.544;2022-12-29T09:18:53;70.96;52.54;78.23;;
18377;Laerm;9315;52.624;13.544;2022-12-29T09:21:21;71.67;52.78;81.07;;
18377;Laerm;9315;52.624;13.544;2022-12-29T09:23:48;71.98;53.88;82.25;;
18377;Laerm;9315;52.624;13.544;2022-12-29T09:26:15;69.07;51.05;77.62;;
18377;Laerm;9315;52.624;13.544;2022-12-29T09:28:43;69.79;52.78;77.63;;
18377;Laerm;9315;52.624;13.544;2022-12-29T09:31:11;69.35;51.52;77.46;;
18377;Laerm;9315;52.624;13.544;2022-12-29T09:33:39;69.88;51.30;77.62;;
18377;Laerm;9315;52.624;13.544;2022-12-29T09:36:08;71.44;52.85;78.00;;
18377;Laerm;9315;52.624;13.544;2022-12-29T09:38:35;70.69;54.06;82.43;;
18377;Laerm;9315;52.624;13.544;2022-12-29T09:44:33;70.12;51.19;78.97;;
18377;Laerm;9315;52.624;13.544;2022-12-29T09:47:14;69.43;52.69;78.25;;
18377;Laerm;9315;52.624;13.544;2022-12-29T09:49:58;71.15;54.82;81.50;;
18377;Laerm;9315;52.624;13.544;2022-12-29T09:52:49;69.94;50.53;77.91;;
18377;Laerm;9315;52.624;13.544;2022-12-29T09:55:47;68.87;52.70;80.12;;
18377;Laerm;9315;52.624;13.544;2022-12-29T09:58:55;70.60;52.84;79.38;;
18377;Laerm;9315;52.624;13.544;2022-12-29T10:01:46;69.87;52.12;77.98;;
18377;Laerm;9315;52.624;13.544;2022-12-29T10:04:32;69.27;51.11;79.87;;
18377;Laerm;9315;52.624;13.544;2022-12-29T10:07:13;69.97;52.99;78.39;;
18377;Laerm;9315;52.624;13.544;2022-12-29T10:10:50;70.95;52.58;82.33;;
18377;Laerm;9315;52.624;13.544;2022-12-29T10:14:10;69.75;51.27;82.16;;
18377;Laerm;9315;52.624;13.544;2022-12-29T10:20:31;69.92;55.39;79.06;;
18377;Laerm;9315;52.624;13.544;2022-12-29T10:23:40;71.35;54.22;78.64;;
18377;Laerm;9315;52.624;13.544;2022-12-29T10:26:26;69.68;53.38;78.13;;
18377;Laerm;9315;52.624;13.544;2022-12-29T10:29:22;71.44;55.67;80.94;;
18377;Laerm;9315;52.624;13.544;2022-12-29T10:32:37;70.72;51.28;80.28;;
18377;Laerm;9315;52.624;13.544;2022-12-29T10:35:20;69.18;52.47;84.66;;
18377;Laerm;9315;52.624;13.544;2022-12-29T10:38:15;70.53;52.23;78.88;;
18377;Laerm;9315;52.624;13.544;2022-12-29T10:41:25;70.66;52.31;80.83;;
18377;Laerm;9315;52.624;13.544;2022-12-29T10:43:57;71.15;55.89;78.88;;
18377;Laerm;9315;52.624;13.544;2022-12-29T10:46:34;71.15;51.25;79.68;;
18377;Laerm;9315;52.624;13.544;2022-12-29T10:49:04;70.76;54.15;79.41;;
18377;Laerm;9315;52.624;13.544;2022-12-29T10:51:39;71.05;54.77;80.60;;
18377;Laerm;9315;52.624;13.544;2022-12-29T10:57:19;71.42;54.16;80.52;;
18377;Laerm;9315;52.624;13.544;2022-12-29T10:59:48;70.50;55.51;79.55;;
18377;Laerm;9315;52.624;13.544;2022-12-29T11:05:22;69.10;52.85;77.38;;
18377;Laerm;9315;52.624;13.544;2022-12-29T11:07:58;71.51;53.44;81.43;;
18377;Laerm;9315;52.624;13.544;2022-12-29T11:10:43;70.01;53.56;78.68;;
18377;Laerm;9315;52.624;13.544;2022-12-29T11:13:17;70.31;57.73;78.17;;
18377;Laerm;9315;52.624;13.544;2022-12-29T11:15:49;70.08;50.96;78.06;;
18377;Laerm;9315;52.624;13.544;2022-12-29T11:18:24;69.94;52.44;79.48;;
18377;Laerm;9315;52.624;13.544;2022-12-29T11:20:59;69.74;51.68;78.90;;
18377;Laerm;9315;52.624;13.544;2022-12-29T11:23:41;69.62;50.71;77.65;;
18377;Laerm;9315;52.624;13.544;2022-12-29T11:26:22;69.80;50.86;78.89;;
18377;Laerm;9315;52.624;13.544;2022-12-29T11:29:17;70.32;53.21;80.73;;
18377;Laerm;9315;52.624;13.544;2022-12-29T11:31:57;71.02;53.76;79.41;;
18377;Laerm;9315;52.624;13.544;2022-12-29T11:34:35;70.29;51.93;84.08;;
18377;Laerm;9315;52.624;13.544;2022-12-29T11:37:24;71.10;55.39;81.19;;
18377;Laerm;9315;52.624;13.544;2022-12-29T11:40:16;69.94;52.21;77.83;;
18377;Laerm;9315;52.624;13.544;2022-12-29T11:43:00;70.82;54.77;79.65;;
18377;Laerm;9315;52.624;13.544;2022-12-29T11:45:35;70.14;54.70;79.19;;
18377;Laerm;9315;52.624;13.544;2022-12-29T11:48:20;70.87;56.48;81.23;;
18377;Laerm;9315;52.624;13.544;2022-12-29T11:50:55;69.40;52.07;78.19;;
18377;Laerm;9315;52.624;13.544;2022-12-29T11:53:41;69.82;50.56;78.18;;
18377;Laerm;9315;52.624;13.544;2022-12-29T11:56:15;70.58;54.43;78.45;;
18377;Laerm;9315;52.624;13.544;2022-12-29T11:58:44;69.79;52.95;81.48;;
18377;Laerm;9315;52.624;13.544;2022-12-29T12:01:34;72.72;54.11;85.17;;
18377;Laerm;9315;52.624;13.544;2022-12-29T12:04:12;71.77;55.36;80.06;;
18377;Laerm;9315;52.624;13.544;2022-12-29T12:07:20;69.44;53.60;80.56;;
18377;Laerm;9315;52.624;13.544;2022-12-29T12:09:57;72.09;55.80;80.00;;
18377;Laerm;9315;52.624;13.544;2022-12-29T12:13:07;71.63;53.23;80.65;;
18377;Laerm;9315;52.624;13.544;2022-12-29T12:15:42;71.38;53.41;79.51;;
18377;Laerm;9315;52.624;13.544;2022-12-29T12:21:45;72.09;55.75;82.56;;
18377;Laerm;9315;52.624;13.544;2022-12-29T12:27:02;72.15;55.68;81.96;;
18377;Laerm;9315;52.624;13.544;2022-12-29T12:29:59;71.99;52.01;79.47;;
18377;Laerm;9315;52.624;13.544;2022-12-29T12:33:35;71.69;52.83;81.02;;
18377;Laerm;9315;52.624;13.544;2022-12-29T12:37:00;72.54;54.65;83.07;;
18377;Laerm;9315;52.624;13.544;2022-12-29T12:40:28;72.48;53.01;81.00;;
18377;Laerm;9315;52.624;13.544;2022-12-29T12:43:51;71.05;51.18;80.96;;
18377;Laerm;9315;52.624;13.544;2022-12-29T12:59:39;72.70;50.60;83.24;;
18377;Laerm;9315;52.624;13.544;2022-12-29T13:18:31;73.60;55.24;84.98;;
18377;Laerm;9315;52.624;13.544;2022-12-29T13:21:58;71.35;53.02;81.89;;
18377;Laerm;9315;52.624;13.544;2022-12-29T13:33:56;71.23;51.57;79.75;;
18377;Laerm;9315;52.624;13.544;2022-12-29T13:37:08;72.29;54.62;79.71;;
18377;Laerm;9315;52.624;13.544;2022-12-29T13:39:56;70.58;57.09;81.59;;
18377;Laerm;9315;52.624;13.544;2022-12-29T13:42:25;72.20;53.14;80.92;;
18377;Laerm;9315;52.624;13.544;2022-12-29T13:45:10;71.34;53.40;78.82;;
18377;Laerm;9315;52.624;13.544;2022-12-29T13:50:37;71.57;54.16;79.53;;
18377;Laerm;9315;52.624;13.544;2022-12-29T13:56:36;71.78;53.08;85.40;;
18377;Laerm;9315;52.624;13.544;2022-12-29T13:59:40;71.37;51.15;79.05;;
18377;Laerm;9315;52.624;13.544;2022-12-29T14:07:46;71.32;57.56;78.85;;
18377;Laerm;9315;52.624;13.544;2022-12-29T14:10:51;70.81;53.89;79.61;;
18377;Laerm;9315;52.624;13.544;2022-12-29T14:13:23;71.01;53.35;78.51;;
18377;Laerm;9315;52.624;13.544;2022-12-29T14:15:56;70.13;52.08;79.38;;
18377;Laerm;9315;52.624;13.544;2022-12-29T14:18:41;72.43;55.57;82.20;;
18377;Laerm;9315;52.624;13.544;2022-12-29T14:21:23;72.32;51.77;82.57;;
18377;Laerm;9315;52.624;13.544;2022-12-29T14:35:00;70.89;54.25;78.55;;
18377;Laerm;9315;52.624;13.544;2022-12-29T14:37:38;72.67;51.39;80.05;;
18377;Laerm;9315;52.624;13.544;2022-12-29T14:40:25;70.95;52.42;78.22;;
18377;Laerm;9315;52.624;13.544;2022-12-29T14:42:55;70.35;52.99;79.34;;
18377;Laerm;9315;52.624;13.544;2022-12-29T14:45:29;70.13;51.62;77.52;;
18377;Laerm;9315;52.624;13.544;2022-12-29T14:47:59;70.71;50.53;78.05;;
18377;Laerm;9315;52.624;13.544;2022-12-29T14:50:44;69.91;49.79;78.20;;
18377;Laerm;9315;52.624;13.544;2022-12-29T14:53:49;70.94;52.14;78.64;;
18377;Laerm;9315;52.624;13.544;2022-12-29T14:56:23;70.05;52.46;78.32;;
18377;Laerm;9315;52.624;13.544;2022-12-29T14:58:56;69.89;54.10;76.78;;
18377;Laerm;9315;52.624;13.544;2022-12-29T15:04:23;70.55;55.10;79.69;;
18377;Laerm;9315;52.624;13.544;2022-12-29T15:06:52;71.98;51.87;77.75;;
18377;Laerm;9315;52.624;13.544;2022-12-29T15:09:58;70.81;53.32;78.95;;
18377;Laerm;9315;52.624;13.544;2022-12-29T15:12:51;69.16;50.55;79.27;;
18377;Laerm;9315;52.624;13.544;2022-12-29T15:15:28;70.40;53.65;78.05;;
18377;Laerm;9315;52.624;13.544;2022-12-29T15:17:56;71.41;53.97;79.07;;
18377;Laerm;9315;52.624;13.544;2022-12-29T15:20:30;71.97;54.37;78.59;;
18377;Laerm;9315;52.624;13.544;2022-12-29T15:23:11;69.43;52.27;77.45;;
18377;Laerm;9315;52.624;13.544;2022-12-29T15:26:00;73.47;56.14;82.16;;
18377;Laerm;9315;52.624;13.544;2022-12-29T15:28:41;75.84;57.33;83.51;;
18377;Laerm;9315;52.624;13.544;2022-12-29T15:31:23;78.13;60.42;86.92;;
18377;Laerm;9315;52.624;13.544;2022-12-29T15:34:11;78.35;56.25;86.90;;
18377;Laerm;9315;52.624;13.544;2022-12-29T15:36:40;76.29;54.77;86.05;;
18377;Laerm;9315;52.624;13.544;2022-12-29T15:39:30;75.79;52.65;83.62;;
18377;Laerm;9315;52.624;13.544;2022-12-29T15:45:06;75.24;53.00;84.70;;
18377;Laerm;9315;52.624;13.544;2022-12-29T15:47:43;76.61;53.97;84.53;;
18377;Laerm;9315;52.624;13.544;2022-12-29T15:50:35;75.98;55.14;92.84;;
18377;Laerm;9315;52.624;13.544;2022-12-29T15:53:11;72.91;51.14;83.69;;
18377;Laerm;9315;52.624;13.544;2022-12-29T15:55:41;74.72;51.25;84.07;;
18377;Laerm;9315;52.624;13.544;2022-12-29T15:58:24;74.56;51.92;82.02;;
18377;Laerm;9315;52.624;13.544;2022-12-29T16:00:58;73.60;55.06;82.89;;
18377;Laerm;9315;52.624;13.544;2022-12-29T16:03:32;75.39;52.69;84.06;;
18377;Laerm;9315;52.624;13.544;2022-12-29T16:06:44;74.66;50.90;86.85;;
18377;Laerm;9315;52.624;13.544;2022-12-29T16:09:29;73.22;51.86;82.81;;
18377;Laerm;9315;52.624;13.544;2022-12-29T16:12:05;75.09;53.50;83.77;;
18377;Laerm;9315;52.624;13.544;2022-12-29T16:17:50;73.77;52.36;85.18;;
18377;Laerm;9315;52.624;13.544;2022-12-29T16:20:40;74.15;54.29;84.45;;
18377;Laerm;9315;52.624;13.544;2022-12-29T16:23:22;74.00;52.92;83.46;;
18377;Laerm;9315;52.624;13.544;2022-12-29T16:25:51;75.06;52.46;85.09;;
18377;Laerm;9315;52.624;13.544;2022-12-29T16:28:35;72.77;52.14;83.62;;
18377;Laerm;9315;52.624;13.544;2022-12-29T16:31:35;73.60;50.97;86.39;;
18377;Laerm;9315;52.624;13.544;2022-12-29T16:34:43;73.12;50.02;85.89;;
18377;Laerm;9315;52.624;13.544;2022-12-29T16:37:33;73.07;49.62;84.23;;
18377;Laerm;9315;52.624;13.544;2022-12-29T16:40:29;73.49;50.94;82.58;;